San Diego, California
Traffic Map
Current Weather Conditions
San Diego, California
Broken Clouds
Broken Clouds
60°
Feels Like: 60°
Wind Chill: 60° Ceiling: 3100
Heat Index: 60° Visibility: 10mi
Dew Point: 49° Wind: 10mph
Humidity: 67% Direction: 170° (S)
Pressure: 29.99in Gusts: 0mph
Raw Report DataKSAN 290951Z 17009KT 10SM SCT025 BKN031 16/09 A2999 RMK AO2 SLP156 T01560094 $
Traffic Incident Summary
Active as of:
Severity:
Category:
InformationThere was an issue retrieving the traffic information for this location. Please try a different location or try again shortly.
Advertisements
Track Severe Weather on mobile